createdAt,value
2018-07-25T00:00:07.041Z,72.08
2018-07-25T00:01:16.878Z,72.18
2018-07-25T00:02:26.402Z,71.7
2018-07-25T00:03:36.466Z,71.12
2018-07-25T00:04:46.251Z,71.31
2018-07-25T00:05:56.313Z,71.41
2018-07-25T00:07:06.440Z,70.44
2018-07-25T00:08:16.513Z,71.02
2018-07-25T00:09:26.320Z,70.73
2018-07-25T00:10:35.593Z,71.31
2018-07-25T00:11:45.408Z,71.31
2018-07-25T00:12:55.272Z,70.92
2018-07-25T00:14:05.347Z,71.22
2018-07-25T00:15:15.422Z,72.18
2018-07-25T00:16:24.952Z,71.7
2018-07-25T00:17:35.024Z,71.89
2018-07-25T00:18:44.882Z,72.18
2018-07-25T00:19:54.685Z,71.98
2018-07-25T00:21:04.506Z,72.27
2018-07-25T00:22:14.573Z,71.98
2018-07-25T00:23:24.380Z,72.18
2018-07-25T00:24:34.250Z,72.47
2018-07-25T00:25:44.056Z,72.85
2018-07-25T00:26:53.323Z,72.08
2018-07-25T00:28:03.114Z,72.47
2018-07-25T00:29:12.907Z,72.18
2018-07-25T00:30:23.020Z,71.98
2018-07-25T00:31:33.106Z,72.08
2018-07-25T00:32:43.197Z,72.75
2018-07-25T00:33:52.730Z,73.43
2018-07-25T00:35:02.804Z,74.36
2018-07-25T00:36:12.740Z,73.58
2018-07-25T00:37:23.031Z,74.07
2018-07-25T00:38:32.559Z,74.32
2018-07-25T00:39:42.351Z,75.57
2018-07-25T00:40:52.407Z,75.19
2018-07-25T00:42:02.259Z,75.09
2018-07-25T00:43:12.061Z,74.55
2018-07-25T00:44:22.124Z,75.28
2018-07-25T00:45:32.193Z,75.32
2018-07-25T00:46:42.259Z,74.36
2018-07-25T00:47:52.095Z,75.42
2018-07-25T00:49:01.875Z,75.42
2018-07-25T00:50:11.937Z,74.74
2018-07-25T00:51:22.006Z,74.74
2018-07-25T00:52:31.828Z,75.13
2018-07-25T00:53:41.955Z,75.42
2018-07-25T00:54:52.028Z,74.74
2018-07-25T00:56:01.834Z,75.42
2018-07-25T00:57:11.651Z,75.32
2018-07-25T00:58:21.725Z,75.51
2018-07-25T00:59:31.578Z,74.74
2018-07-25T01:00:41.398Z,74.07
2018-07-25T01:01:51.501Z,74.16
2018-07-25T01:03:01.563Z,74.16
2018-07-25T01:04:11.372Z,74.22
2018-07-25T01:05:21.217Z,74.16
2018-07-25T01:06:31.291Z,74.36
2018-07-25T01:07:41.356Z,75.19
2018-07-25T01:08:51.420Z,75.38
2018-07-25T01:10:01.508Z,75.42
2018-07-25T01:11:11.357Z,75.71
2018-07-25T01:12:21.442Z,75.8
2018-07-25T01:13:31.252Z,76.15
2018-07-25T01:14:41.326Z,75.57
2018-07-25T01:15:51.475Z,75.76
2018-07-25T01:17:01.058Z,76.34
2018-07-25T01:18:10.856Z,76.53
2018-07-25T01:19:20.651Z,76.73
2018-07-25T01:20:30.185Z,76.73
2018-07-25T01:21:39.715Z,76.44
2018-07-25T01:22:49.831Z,76.25
2018-07-25T01:23:59.897Z,75.96
2018-07-25T01:25:09.713Z,75.96
2018-07-25T01:26:19.765Z,76.18
2018-07-25T01:27:29.821Z,75.61
2018-07-25T01:28:39.932Z,75.42
2018-07-25T01:29:49.793Z,75.38
2018-07-25T01:30:59.858Z,74.9
2018-07-25T01:32:09.641Z,75.38
2018-07-25T01:33:19.715Z,75.57
2018-07-25T01:34:29.809Z,75.76
2018-07-25T01:35:39.612Z,75.67
2018-07-25T01:36:49.694Z,76.15
2018-07-25T01:37:59.746Z,75.92
2018-07-25T01:39:09.288Z,76.01
2018-07-25T01:40:19.144Z,75.92
2018-07-25T01:41:29.215Z,76.5
2018-07-25T01:42:39.024Z,76.11
2018-07-25T01:43:49.107Z,76.5
2018-07-25T01:44:58.900Z,76.59
2018-07-25T01:46:08.476Z,77.17
2018-07-25T01:47:18.548Z,76.84
2018-07-25T01:48:28.344Z,76.5
2018-07-25T01:49:38.395Z,77.23
2018-07-25T01:50:48.472Z,77.13
2018-07-25T01:51:58.312Z,77.71
2018-07-25T01:53:08.114Z,77.51
2018-07-25T01:54:17.916Z,77.23
2018-07-25T01:55:27.174Z,77.71
2018-07-25T01:56:36.964Z,78.19
2018-07-25T01:57:47.081Z,78.58
2018-07-25T01:58:56.601Z,79.44
2018-07-25T02:00:06.678Z,79.63
2018-07-25T02:01:16.759Z,79.63
2018-07-25T02:02:26.941Z,80.6
2018-07-25T02:03:37.090Z,80.88
2018-07-25T02:04:47.169Z,81.84
2018-07-25T02:05:56.949Z,82.42
2018-07-25T02:07:07.027Z,82.71
2018-07-25T02:08:17.333Z,82.32
2018-07-25T02:09:27.778Z,82.52
2018-07-25T02:10:37.853Z,83.06
2018-07-25T02:11:47.654Z,83.58
2018-07-25T02:12:57.733Z,83.92
2018-07-25T02:14:07.264Z,84.3
2018-07-25T02:15:17.382Z,85.78
2018-07-25T02:16:27.438Z,84.88
2018-07-25T02:17:37.500Z,87.38
2018-07-25T02:18:47.303Z,87.09
2018-07-25T02:19:57.108Z,86.71
2018-07-25T02:21:07.235Z,85.55
2018-07-25T02:22:17.317Z,85.55
2018-07-25T02:23:27.381Z,85.94
2018-07-25T02:24:37.469Z,86.52
2018-07-25T02:25:47.561Z,86.32
2018-07-25T02:26:57.400Z,85.65
2018-07-25T02:28:06.928Z,85.55
2018-07-25T02:29:17.004Z,85.84
2018-07-25T02:30:26.815Z,85.84
2018-07-25T02:31:36.631Z,85.46
2018-07-25T02:32:46.775Z,85.07
2018-07-25T02:33:56.866Z,85.36
2018-07-25T02:35:06.963Z,85.17
2018-07-25T02:36:16.495Z,84.3
2018-07-25T02:37:26.562Z,84.59
2018-07-25T02:38:36.431Z,85.17
2018-07-25T02:39:46.536Z,85.17
2018-07-25T02:40:56.340Z,84.98
2018-07-25T02:42:05.614Z,84.69
2018-07-25T02:43:15.704Z,85.84
2018-07-25T02:44:25.826Z,84.98
2018-07-25T02:45:35.393Z,85.84
2018-07-25T02:46:45.457Z,86.52
2018-07-25T02:47:55.277Z,86.32
2018-07-25T02:49:05.387Z,86.61
2018-07-25T02:50:15.242Z,86.57
2018-07-25T02:51:25.071Z,88.73
2018-07-25T02:52:35.137Z,88.06
2018-07-25T02:53:44.958Z,88.92
2018-07-25T02:54:54.762Z,88.24
2018-07-25T02:56:04.347Z,87.82
2018-07-25T02:57:14.436Z,88.01
2018-07-25T02:58:24.512Z,88.1
2018-07-25T02:59:34.590Z,87.53
2018-07-25T03:03:34.808Z,88.73
2018-07-25T03:04:44.070Z,90.17
2018-07-25T03:05:54.150Z,88.63
2018-07-25T03:07:03.960Z,88.06
2018-07-25T03:08:13.781Z,88.06
2018-07-25T03:09:23.913Z,87.96
2018-07-25T03:10:33.724Z,87.96
2018-07-25T03:11:43.807Z,88.24
2018-07-25T03:12:53.602Z,87.38
2018-07-25T03:14:03.413Z,86.61
2018-07-25T03:15:13.267Z,86.99
2018-07-25T03:16:23.357Z,86.9
2018-07-25T03:17:33.165Z,86.52
2018-07-25T03:18:42.962Z,86.8
2018-07-25T03:19:52.755Z,86.99
2018-07-25T03:21:02.864Z,86.13
2018-07-25T03:22:12.678Z,85.94
2018-07-25T03:23:22.755Z,85.84
2018-07-25T03:24:32.828Z,85.84
2018-07-25T03:25:42.911Z,85.84
2018-07-25T03:26:53.043Z,85.84
2018-07-25T03:28:03.112Z,85.55
2018-07-25T03:29:13.196Z,84.88
2018-07-25T03:30:22.989Z,85.27
2018-07-25T03:31:32.878Z,85.17
2018-07-25T03:32:43.446Z,85.75
2018-07-25T03:33:53.505Z,85.46
2018-07-25T03:35:03.316Z,85.55
2018-07-25T03:36:13.409Z,86.32
2018-07-25T03:37:23.279Z,86.22
2018-07-25T03:38:33.621Z,86.32
2018-07-25T03:39:43.429Z,86.99
2018-07-25T03:40:53.513Z,87.48
2018-07-25T03:42:03.054Z,87.38
2018-07-25T03:43:13.114Z,86.99
2018-07-25T03:44:23.231Z,88.24
2018-07-25T03:45:32.763Z,88.53
2018-07-25T03:46:42.558Z,88.34
2018-07-25T03:47:52.631Z,87.96
2018-07-25T03:49:02.171Z,88.44
2018-07-25T03:50:12.297Z,88.44
2018-07-25T03:51:22.108Z,87.96
2018-07-25T03:52:32.177Z,87.67
2018-07-25T03:53:41.981Z,87.09
2018-07-25T03:54:52.065Z,88.34
2018-07-25T03:56:02.177Z,88.73
2018-07-25T03:57:11.989Z,87.57
2018-07-25T03:58:21.796Z,88.15
2018-07-25T03:59:31.599Z,88.24
2018-07-25T04:00:41.664Z,88.63
2018-07-25T04:01:51.560Z,88.92
2018-07-25T04:03:01.532Z,89.4
2018-07-25T04:04:11.606Z,89.4
2018-07-25T04:05:21.653Z,88.87
2018-07-25T04:06:31.714Z,88.53
2018-07-25T04:07:41.573Z,89.15
2018-07-25T04:08:51.118Z,89.35
2018-07-25T04:10:01.192Z,89.64
2018-07-25T04:11:11.005Z,90.02
2018-07-25T04:12:21.072Z,90.98
2018-07-25T04:13:31.193Z,90.07
2018-07-25T04:14:41.258Z,89.25
2018-07-25T04:15:51.337Z,89.25
2018-07-25T04:17:01.407Z,89.35
2018-07-25T04:18:11.490Z,89.15
2018-07-25T04:19:21.349Z,88.77
2018-07-25T04:20:31.151Z,88.67
2018-07-25T04:21:41.217Z,89.06
2018-07-25T04:22:51.305Z,88.87
2018-07-25T04:24:01.181Z,90.21
2018-07-25T04:25:11.304Z,90.16
2018-07-25T04:26:21.381Z,89.06
2018-07-25T04:27:30.918Z,88.91
2018-07-25T04:28:41.003Z,88.24
2018-07-25T04:29:50.545Z,88.1
2018-07-25T04:31:00.669Z,88.43
2018-07-25T04:32:10.491Z,88.43
2018-07-25T04:33:20.314Z,87.66
2018-07-25T04:34:30.116Z,87.76
2018-07-25T04:35:40.206Z,87.27
2018-07-25T04:36:50.350Z,87.08
2018-07-25T04:38:00.416Z,86.69
2018-07-25T04:39:09.989Z,86.6
2018-07-25T04:40:19.244Z,87.27
2018-07-25T04:41:29.056Z,86.89
2018-07-25T04:42:39.245Z,86.89
2018-07-25T04:43:49.291Z,86.83
2018-07-25T04:44:59.377Z,86.35
2018-07-25T04:46:09.286Z,87.12
2018-07-25T04:47:19.835Z,86.26
2018-07-25T04:48:29.702Z,86.55
2018-07-25T04:49:39.798Z,86.65
2018-07-25T04:50:49.342Z,85.87
2018-07-25T04:51:59.133Z,86.16
2018-07-25T04:53:09.222Z,86.07
2018-07-25T04:54:19.093Z,86.65
2018-07-25T04:55:29.161Z,85.87
2018-07-25T04:56:38.696Z,86.4
2018-07-25T04:57:48.513Z,85.91
2018-07-25T04:58:58.587Z,85.53
2018-07-25T05:00:08.466Z,85.43
2018-07-25T05:01:18.545Z,86.49
2018-07-25T05:02:28.619Z,86.11
2018-07-25T05:03:37.616Z,85.53
2018-07-25T05:04:47.417Z,85.91
2018-07-25T05:05:57.298Z,85.82
2018-07-25T05:07:06.888Z,85.82
2018-07-25T05:08:17.207Z,86.11
2018-07-25T05:09:27.001Z,85.05
2018-07-25T05:10:36.530Z,85.05
2018-07-25T05:11:46.400Z,84.66
2018-07-25T05:12:56.480Z,84.76
2018-07-25T05:14:06.539Z,84.32
2018-07-25T05:15:16.354Z,84.22
2018-07-25T05:16:26.438Z,84.32
2018-07-25T05:17:36.295Z,83.74
2018-07-25T05:18:46.099Z,83.84
2018-07-25T05:19:55.630Z,83.64
2018-07-25T05:21:05.700Z,83.45
2018-07-25T05:22:15.782Z,82.68
2018-07-25T05:23:25.767Z,82.49
2018-07-25T05:24:35.849Z,81.91
2018-07-25T05:25:45.653Z,81.43
2018-07-25T05:26:55.462Z,81.62
2018-07-25T05:28:05.000Z,81.37
2018-07-25T05:29:15.133Z,81.27
2018-07-25T05:30:24.935Z,80.99
2018-07-25T05:31:34.741Z,80.89
2018-07-25T05:32:44.825Z,80.89
2018-07-25T05:33:54.367Z,79.74
2018-07-25T05:35:04.502Z,80.02
2018-07-25T05:36:14.291Z,80.31
2018-07-25T05:37:24.110Z,80.06
2018-07-25T05:38:33.901Z,79.77
2018-07-25T05:39:43.708Z,79.35
2018-07-25T05:40:54.140Z,79.19
2018-07-25T05:42:04.215Z,79.49
2018-07-25T05:43:14.031Z,79.39
2018-07-25T05:44:24.103Z,78.91
2018-07-25T05:45:33.630Z,78.81
2018-07-25T05:46:43.473Z,78.13
2018-07-25T05:47:53.271Z,78.66
2018-07-25T05:49:03.364Z,78.17
2018-07-25T05:50:12.897Z,78.75
2018-07-25T05:51:22.702Z,78.36
2018-07-25T05:52:32.287Z,78.56
2018-07-25T05:53:42.365Z,78.08
2018-07-25T05:54:52.444Z,78.46
2018-07-25T05:56:02.524Z,77.69
2018-07-25T05:57:12.621Z,77.3
2018-07-25T05:58:22.216Z,77.01
2018-07-25T05:59:32.028Z,77.3
2018-07-25T06:00:42.101Z,76.82
2018-07-25T06:01:52.192Z,76.95
2018-07-25T06:03:02.546Z,77.11
2018-07-25T06:04:13.466Z,76.86
2018-07-25T06:05:23.832Z,76.95
2018-07-25T06:06:33.919Z,77.05
2018-07-25T06:07:43.458Z,76.28
2018-07-25T06:08:53.264Z,76.76
2018-07-25T06:10:03.120Z,76.67
2018-07-25T06:11:13.211Z,76.37
2018-07-25T06:12:22.747Z,75.89
2018-07-25T06:13:32.547Z,75.51
2018-07-25T06:14:42.630Z,75.64
2018-07-25T06:15:52.755Z,75.74
2018-07-25T06:17:02.809Z,74.96
2018-07-25T06:18:12.610Z,75.06
2018-07-25T06:19:22.684Z,74.77
2018-07-25T06:20:31.959Z,74.96
2018-07-25T06:21:42.455Z,74.58
2018-07-25T06:22:52.269Z,73.8
2018-07-25T06:24:02.341Z,73.71
2018-07-25T06:25:12.154Z,74.29
2018-07-25T06:26:22.225Z,74
2018-07-25T06:27:31.593Z,74.87
2018-07-25T06:28:41.418Z,74.77
2018-07-25T06:29:51.214Z,74.48
2018-07-25T06:31:01.014Z,74.87
2018-07-25T06:32:10.279Z,74.58
2018-07-25T06:33:20.415Z,74.68
2018-07-25T06:34:30.215Z,74.68
2018-07-25T06:35:40.025Z,75.16
2018-07-25T06:37:05.586Z,74.71
2018-07-25T06:38:15.944Z,74.71
2018-07-25T06:39:26.333Z,73.74
2018-07-25T06:40:36.307Z,74.9
2018-07-25T06:41:46.389Z,74.81
2018-07-25T06:42:56.191Z,74.9
2018-07-25T06:44:06.331Z,72.78
2018-07-25T06:45:16.138Z,71.81
2018-07-25T06:46:25.689Z,70.94
2018-07-25T06:47:35.489Z,71.72
2018-07-25T06:48:45.275Z,71.04
2018-07-25T06:49:55.390Z,71.23
2018-07-25T06:51:05.209Z,71.17
2018-07-25T06:52:15.300Z,70.59
2018-07-25T06:53:25.386Z,70.4
2018-07-25T06:54:34.653Z,69.72
2018-07-25T06:55:44.794Z,69.43
2018-07-25T06:56:54.593Z,70.01
2018-07-25T06:58:04.141Z,68.4
2018-07-25T06:59:13.967Z,68.01
2018-07-25T07:00:23.504Z,68.08
2018-07-25T07:01:33.359Z,67.79
2018-07-25T07:02:43.163Z,68.79
2018-07-25T07:03:52.969Z,67.43
2018-07-25T07:05:02.502Z,67.24
2018-07-25T07:06:12.083Z,67.91
2018-07-25T07:07:21.932Z,66.85
2018-07-25T07:08:31.738Z,67.14
2018-07-25T07:09:41.287Z,65.79
2018-07-25T07:10:50.541Z,66.17
2018-07-25T07:12:00.369Z,67.14
2018-07-25T07:13:10.709Z,66.69
2018-07-25T07:14:20.790Z,66.56
2018-07-25T07:15:30.346Z,64.95
2018-07-25T07:16:40.424Z,64.56
2018-07-25T07:17:50.503Z,65.53
2018-07-25T07:19:00.623Z,64.85
2018-07-25T07:20:10.690Z,64.85
2018-07-25T07:21:20.765Z,64.56
2018-07-25T07:22:30.285Z,65.14
2018-07-25T07:23:40.094Z,64.17
2018-07-25T07:24:50.240Z,64.56
2018-07-25T07:26:00.060Z,64.27
2018-07-25T07:27:09.594Z,63.69
2018-07-25T07:28:19.395Z,63.49
2018-07-25T07:29:29.470Z,63.59
2018-07-25T07:30:39.600Z,62.56
2018-07-25T07:31:49.676Z,62.53
2018-07-25T07:32:59.490Z,62.56
2018-07-25T07:34:09.293Z,62.37
2018-07-25T07:35:19.103Z,62.85
2018-07-25T07:36:28.965Z,63.14
2018-07-25T07:37:39.134Z,63.43
2018-07-25T07:38:49.451Z,63.14
2018-07-25T07:39:59.535Z,62.27
2018-07-25T07:41:09.339Z,62.56
2018-07-25T07:42:18.912Z,62.56
2018-07-25T07:43:28.715Z,61.88
2018-07-25T07:44:38.804Z,61.4
2018-07-25T07:45:48.627Z,61.49
2018-07-25T07:46:58.692Z,62.56
2018-07-25T07:48:08.553Z,61.14
2018-07-25T07:49:18.635Z,61.82
2018-07-25T07:50:28.707Z,61.14
2018-07-25T07:51:38.256Z,61.43
2018-07-25T07:52:48.322Z,59.97
2018-07-25T07:53:58.069Z,59.78
2018-07-25T07:55:08.084Z,60.07
2018-07-25T07:56:17.368Z,59.78
2018-07-25T07:57:26.916Z,59.1
2018-07-25T07:58:37.008Z,59.97
2018-07-25T07:59:46.866Z,59.69
2018-07-25T08:00:56.675Z,61.3
2018-07-25T08:02:06.482Z,59.94
2018-07-25T08:03:16.541Z,60.43
2018-07-25T08:04:26.368Z,60.91
2018-07-25T08:05:35.963Z,60.91
2018-07-25T08:06:45.777Z,59.94
2018-07-25T08:07:55.305Z,59.3
2018-07-25T08:09:04.555Z,59.59
2018-07-25T08:10:14.373Z,58.91
2018-07-25T08:11:24.219Z,59.97
2018-07-25T08:12:34.291Z,59.39
2018-07-25T08:13:44.379Z,59
2018-07-25T08:14:54.199Z,59
2018-07-25T08:16:04.290Z,59.39
2018-07-25T08:17:14.427Z,57.94
2018-07-25T08:18:24.511Z,58.26
2018-07-25T08:19:34.634Z,58.42
2018-07-25T08:20:44.291Z,57.68
2018-07-25T08:21:54.508Z,56.81
2018-07-25T08:23:04.353Z,57.09
2018-07-25T08:24:14.172Z,56.03
2018-07-25T08:25:23.703Z,56.23
2018-07-25T08:26:33.776Z,56.03
2018-07-25T08:27:43.590Z,56.61
2018-07-25T08:28:53.436Z,57.19
2018-07-25T08:30:03.237Z,56.41
2018-07-25T08:31:13.312Z,54.67
2018-07-25T08:32:23.378Z,54.38
2018-07-25T08:33:32.909Z,55.26
2018-07-25T08:34:42.828Z,54.86
2018-07-25T08:35:53.233Z,55.35
2018-07-25T08:37:03.068Z,54.86
2018-07-25T08:38:12.865Z,55.83
2018-07-25T08:39:22.398Z,54.86
2018-07-25T08:40:31.993Z,56.03
2018-07-25T08:41:42.218Z,55.08
2018-07-25T08:42:52.326Z,54.02
2018-07-25T08:44:02.399Z,53.53
2018-07-25T08:45:12.204Z,54.31
2018-07-25T08:46:21.782Z,53.34
2018-07-25T08:47:31.599Z,53.92
2018-07-25T08:48:41.687Z,52.95
2018-07-25T08:49:51.501Z,53.24
2018-07-25T08:51:01.300Z,53.44
2018-07-25T08:52:11.170Z,53.05
2018-07-25T08:53:20.693Z,52.95
2018-07-25T08:54:30.526Z,53.15
2018-07-25T08:55:40.072Z,53.17
2018-07-25T08:56:50.139Z,53.47
2018-07-25T08:58:00.001Z,53.08
2018-07-25T08:59:09.806Z,53.17
2018-07-25T09:00:19.896Z,52.11
2018-07-25T09:01:29.151Z,52.3
2018-07-25T09:02:39.216Z,52.88
2018-07-25T09:03:49.329Z,52.11
2018-07-25T09:04:59.108Z,52.81
2018-07-25T09:06:08.650Z,52.03
2018-07-25T09:07:18.461Z,53.1
2018-07-25T09:08:28.634Z,51.35
2018-07-25T09:09:38.609Z,51.16
2018-07-25T09:10:48.991Z,51.35
2018-07-25T09:11:59.063Z,51.26
2018-07-25T09:13:09.394Z,50.48
2018-07-25T09:14:19.560Z,49.8
2018-07-25T09:15:29.717Z,49.99
2018-07-25T09:16:39.792Z,49.32
2018-07-25T09:17:49.430Z,50.07
2018-07-25T09:18:59.586Z,50.16
2018-07-25T09:20:10.008Z,50.19
2018-07-25T09:21:19.857Z,49.99
2018-07-25T09:22:29.656Z,48.93
2018-07-25T09:23:39.465Z,48.93
2018-07-25T09:24:49.527Z,48.54
2018-07-25T09:25:59.619Z,48.54
2018-07-25T09:27:08.935Z,48.93
2018-07-25T09:28:19.399Z,49.24
2018-07-25T09:29:29.506Z,47.49
2018-07-25T09:30:39.347Z,48.27
2018-07-25T09:31:49.502Z,47.11
2018-07-25T09:32:59.402Z,46.62
2018-07-25T09:34:09.095Z,47.01
2018-07-25T09:35:19.600Z,45.67
2018-07-25T09:36:29.736Z,45.57
2018-07-25T09:37:39.566Z,46.35
2018-07-25T09:38:49.794Z,47.13
2018-07-25T09:40:00.014Z,44.99
2018-07-25T09:41:10.163Z,44.7
2018-07-25T09:42:20.076Z,44.7
2018-07-25T09:43:29.660Z,45.38
2018-07-25T09:44:39.900Z,45.77
2018-07-25T09:45:49.534Z,44.79
2018-07-25T09:46:59.671Z,45.77
2018-07-25T09:48:09.999Z,44.99
2018-07-25T09:49:19.875Z,45.09
2018-07-25T09:50:30.157Z,43.92
2018-07-25T09:51:39.443Z,46.94
2018-07-25T09:52:49.730Z,47.23
2018-07-25T09:53:59.772Z,44.79
2018-07-25T09:55:10.060Z,44.79
2018-07-25T09:56:19.709Z,44.6
2018-07-25T09:57:29.904Z,43.95
2018-07-25T09:58:40.100Z,44.43
2018-07-25T09:59:50.337Z,44.33
2018-07-25T10:01:00.642Z,44.04
2018-07-25T10:02:10.879Z,44.62
2018-07-25T10:03:20.716Z,44.62
2018-07-25T10:04:30.598Z,45.01
2018-07-25T10:05:40.492Z,45.04
2018-07-25T10:06:50.340Z,44.16
2018-07-25T10:08:00.362Z,43.58
2018-07-25T10:09:10.481Z,43.67
2018-07-25T10:10:20.686Z,43.46
2018-07-25T10:11:30.898Z,44.04
2018-07-25T10:12:41.064Z,44.16
2018-07-25T10:13:51.010Z,43.38
2018-07-25T10:15:00.614Z,44.06
2018-07-25T10:16:10.772Z,43.09
2018-07-25T10:17:20.726Z,43.19
2018-07-25T10:18:30.599Z,41.94
2018-07-25T10:19:40.526Z,42.72
2018-07-25T10:20:50.538Z,41.16
2018-07-25T10:22:00.667Z,42.14
2018-07-25T10:23:10.282Z,41.36
2018-07-25T10:24:20.460Z,41.53
2018-07-25T10:25:30.442Z,41.34
2018-07-25T10:26:40.295Z,41.65
2018-07-25T10:27:50.462Z,40.88
2018-07-25T10:29:00.384Z,41.16
2018-07-25T10:30:10.297Z,40.97
2018-07-25T10:31:20.624Z,42.24
2018-07-25T10:32:30.493Z,41.36
2018-07-25T10:33:40.054Z,41.16
2018-07-25T10:34:49.926Z,42.72
2018-07-25T10:36:00.115Z,40.41
2018-07-25T10:37:10.065Z,40.31
2018-07-25T10:38:20.235Z,39.62
2018-07-25T10:39:29.804Z,41.19
2018-07-25T10:40:39.948Z,40.31
2018-07-25T10:41:49.807Z,40.5
2018-07-25T10:42:59.999Z,39.92
2018-07-25T10:44:09.564Z,40.89
2018-07-25T10:45:19.683Z,39.26
2018-07-25T10:46:29.538Z,39.36
2018-07-25T10:47:39.686Z,40.62
2018-07-25T10:48:49.464Z,40.13
2018-07-25T10:49:59.783Z,39.06
2018-07-25T10:51:09.628Z,39.45
2018-07-25T10:52:19.743Z,39.36
2018-07-25T10:53:29.613Z,39.45
2018-07-25T10:54:40.071Z,38.48
2018-07-25T10:55:49.979Z,38.67
2018-07-25T10:57:01.082Z,39.75
2018-07-25T10:58:11.879Z,39.53
2018-07-25T10:59:23.098Z,39.36
2018-07-25T11:00:35.089Z,39.06
2018-07-25T11:01:50.053Z,39.06
2018-07-25T11:03:01.302Z,38.87
2018-07-25T11:04:11.787Z,39.26
2018-07-25T11:05:21.376Z,38.38
2018-07-25T11:06:31.692Z,39.06
2018-07-25T11:07:41.824Z,38.38
2018-07-25T11:08:51.426Z,38.98
2018-07-25T11:10:01.544Z,39.26
2018-07-25T11:11:10.831Z,38.79
2018-07-25T11:12:20.981Z,38.87
2018-07-25T11:13:30.569Z,39.08
2018-07-25T11:14:40.407Z,39.08
2018-07-25T11:15:50.570Z,38.89
2018-07-25T11:17:00.422Z,38.59
2018-07-25T11:18:09.757Z,39.37
2018-07-25T11:19:19.644Z,38.61
2018-07-25T11:20:29.238Z,38.4
2018-07-25T11:21:39.097Z,37.91
2018-07-25T11:22:49.274Z,39.18
2018-07-25T11:23:58.698Z,38.67
2018-07-25T11:25:08.815Z,39.28
2018-07-25T11:26:18.369Z,38.67
2018-07-25T11:27:28.229Z,38.98
2018-07-25T11:28:38.344Z,38.2
2018-07-25T11:29:48.197Z,38.71
2018-07-25T11:30:57.723Z,37.63
2018-07-25T11:32:07.782Z,37.45
2018-07-25T11:33:17.861Z,37.65
2018-07-25T11:34:27.402Z,37.25
2018-07-25T11:35:37.268Z,37.95
2018-07-25T11:36:47.350Z,38.24
2018-07-25T11:37:57.170Z,37.09
2018-07-25T11:39:07.092Z,37.09
2018-07-25T11:40:17.157Z,37.77
2018-07-25T11:41:26.745Z,37.75
2018-07-25T11:42:36.548Z,37.65
2018-07-25T11:43:46.232Z,37.37
2018-07-25T11:44:56.522Z,36.8
2018-07-25T11:46:06.322Z,35.74
2018-07-25T11:47:15.958Z,35.38
2018-07-25T11:48:26.052Z,33.95
2018-07-25T11:49:36.141Z,34.83
2018-07-25T11:50:45.407Z,33.84
2018-07-25T11:51:55.216Z,33.46
2018-07-25T11:53:04.815Z,32.42
2018-07-25T11:54:14.899Z,31.16
2018-07-25T11:55:25.142Z,30.77
2018-07-25T11:56:35.766Z,30.88
2018-07-25T11:57:45.574Z,30.32
2018-07-25T11:58:55.702Z,31.3
2018-07-25T12:00:05.523Z,29.76
2018-07-25T12:01:15.964Z,29.96
2018-07-25T12:02:25.935Z,29.06
2018-07-25T12:03:36.030Z,30.14
2018-07-25T12:04:46.172Z,30.14
2018-07-25T12:05:55.714Z,30.33
2018-07-25T12:07:07.673Z,30.52
2018-07-25T12:08:18.460Z,30.99
2018-07-25T12:09:29.629Z,31.09
2018-07-25T12:10:40.084Z,30.81
2018-07-25T12:11:50.133Z,31.1
2018-07-25T12:13:00.527Z,31.79
2018-07-25T12:14:10.453Z,31.07
2018-07-25T12:15:20.634Z,31.67
2018-07-25T12:16:30.532Z,33.02
2018-07-25T12:17:40.382Z,33.38
2018-07-25T12:18:50.528Z,32.51
2018-07-25T12:20:00.391Z,33.22
2018-07-25T12:21:10.263Z,33.7
2018-07-25T12:22:20.808Z,34.16
2018-07-25T12:23:31.039Z,34.74
2018-07-25T12:24:40.941Z,35.69
2018-07-25T12:25:50.834Z,35.79
2018-07-25T12:27:01.230Z,36.26
2018-07-25T12:28:11.491Z,36.55
2018-07-25T12:29:21.686Z,36.91
2018-07-25T12:30:31.585Z,37.21
2018-07-25T12:31:40.888Z,37.19
2018-07-25T12:32:50.492Z,37.67
2018-07-25T12:34:00.737Z,37.22
2018-07-25T12:35:10.913Z,36.63
2018-07-25T12:36:20.816Z,36.72
2018-07-25T12:37:30.948Z,37.6
2018-07-25T12:38:40.540Z,37.48
2018-07-25T12:39:50.782Z,38.06
2018-07-25T12:41:00.670Z,37.77
2018-07-25T12:42:10.880Z,37.87
2018-07-25T12:43:21.069Z,38.92
2018-07-25T12:44:30.970Z,39.41
2018-07-25T12:45:40.643Z,39.7
2018-07-25T12:46:50.244Z,39.51
2018-07-25T12:48:00.450Z,39.88
2018-07-25T12:49:10.307Z,40.37
2018-07-25T12:50:20.199Z,40.55
2018-07-25T12:51:30.470Z,41.03
2018-07-25T12:52:40.612Z,40.55
2018-07-25T12:53:50.713Z,41.13
2018-07-25T12:55:01.195Z,39.96
2018-07-25T12:56:10.803Z,38.53
2018-07-25T12:57:20.753Z,38.57
2018-07-25T12:58:30.647Z,37.41
2018-07-25T12:59:40.262Z,37.32
2018-07-25T13:00:49.839Z,37.22
2018-07-25T13:01:59.809Z,37.12
2018-07-25T13:03:10.369Z,37.22
2018-07-25T13:04:20.259Z,37.62
2018-07-25T13:05:30.426Z,37.22
2018-07-25T13:06:40.033Z,37.21
2018-07-25T13:07:49.938Z,36.34
2018-07-25T13:09:03.961Z,35.79
2018-07-25T13:10:14.113Z,33.97
2018-07-25T13:11:24.004Z,34.77
2018-07-25T13:12:34.213Z,33.14
2018-07-25T13:13:43.814Z,32.28
2018-07-25T13:14:53.761Z,33.26
2018-07-25T13:16:04.070Z,33.23
2018-07-25T13:17:13.652Z,33.31
2018-07-25T13:18:23.546Z,33.61
2018-07-25T13:19:33.447Z,34.1
2018-07-25T13:20:43.673Z,33.9
2018-07-25T13:21:53.305Z,34
2018-07-25T13:23:03.644Z,34.75
2018-07-25T13:24:14.127Z,35.13
2018-07-25T13:25:24.319Z,35.69
2018-07-25T13:26:34.239Z,36.67
2018-07-25T13:27:44.107Z,35.97
2018-07-25T13:28:54.570Z,36.85
2018-07-25T13:30:05.047Z,36.36
2018-07-25T13:31:14.945Z,36.57
2018-07-25T13:32:25.197Z,36.28
2018-07-25T13:33:35.074Z,36.85
2018-07-25T13:34:44.953Z,37.43
2018-07-25T13:35:54.973Z,36.85
2018-07-25T13:37:05.639Z,36.38
2018-07-25T13:38:15.467Z,36.55
2018-07-25T13:39:25.645Z,36.75
2018-07-25T13:40:35.523Z,36.57
2018-07-25T13:41:44.855Z,37.14
2018-07-25T13:42:54.547Z,37.24
2018-07-25T13:44:04.872Z,37.83
2018-07-25T13:45:15.046Z,37.34
2018-07-25T13:46:26.102Z,37.41
2018-07-25T13:47:36.766Z,37.81
2018-07-25T13:48:48.037Z,37.81
2018-07-25T13:49:59.879Z,38.48
2018-07-25T13:51:10.900Z,39.16
2018-07-25T13:52:22.917Z,37.99
2018-07-25T13:53:34.626Z,38.18
2018-07-25T13:54:45.065Z,38.09
2018-07-25T13:55:56.281Z,38.67
2018-07-25T13:57:06.481Z,38.3
2018-07-25T13:58:16.469Z,37.99
2018-07-25T13:59:26.705Z,37.4
2018-07-25T14:00:36.590Z,38.01
2018-07-25T14:01:46.799Z,38.2
2018-07-25T14:02:56.676Z,38.69
2018-07-25T14:04:06.526Z,38.1
2018-07-25T14:05:16.579Z,38.01
2018-07-25T14:06:27.117Z,37.7
2018-07-25T14:07:37.051Z,38.09
2018-07-25T14:08:47.209Z,38.16
2018-07-25T14:09:57.353Z,38.09
2018-07-25T14:11:06.950Z,38.48
2018-07-25T14:12:17.123Z,39.04
2018-07-25T14:13:26.794Z,39.72
2018-07-25T14:14:36.955Z,39.92
2018-07-25T14:15:47.136Z,39.72
2018-07-25T14:16:57.302Z,40.11
2018-07-25T14:18:07.342Z,39.33
2018-07-25T14:19:17.647Z,40
2018-07-25T14:20:27.546Z,40
2018-07-25T14:21:37.148Z,39.7
2018-07-25T14:22:47.334Z,38.55
2018-07-25T14:23:57.490Z,37.52
2018-07-25T14:25:08.851Z,37.12
2018-07-25T14:26:19.076Z,36.38
2018-07-25T14:27:29.276Z,36.22
2018-07-25T14:28:39.651Z,35.83
2018-07-25T14:29:49.876Z,35.34
2018-07-25T14:30:59.847Z,35.32
2018-07-25T14:32:09.461Z,35.24
2018-07-25T14:33:19.324Z,35.22
2018-07-25T14:34:28.646Z,35.42
2018-07-25T14:35:38.833Z,35.03
2018-07-25T14:36:49.085Z,34.54
2018-07-25T14:37:59.254Z,34.16
2018-07-25T14:39:08.852Z,33.31
2018-07-25T14:40:19.353Z,32.54
2018-07-25T14:41:30.185Z,32.74
2018-07-25T14:42:39.881Z,31.7
2018-07-25T14:43:49.782Z,31.02
2018-07-25T14:44:59.687Z,31.22
2018-07-25T14:46:09.309Z,30.25
2018-07-25T14:47:19.923Z,29.87
2018-07-25T14:48:30.323Z,29.79
2018-07-25T14:49:40.495Z,29.97
2018-07-25T14:50:50.417Z,29.77
2018-07-25T14:52:00.561Z,29.58
2018-07-25T14:53:10.169Z,29.28
2018-07-25T14:54:20.587Z,29.31
2018-07-25T14:55:30.445Z,28.55
2018-07-25T14:56:40.637Z,28.66
2018-07-25T14:57:50.897Z,28.77
2018-07-25T14:59:01.082Z,28.19
2018-07-25T15:00:11.336Z,29.35
2018-07-25T15:01:21.403Z,29.34
2018-07-25T15:02:31.826Z,28.36
2018-07-25T15:03:42.301Z,28.34
2018-07-25T15:04:52.505Z,28.92
2018-07-25T15:06:02.473Z,27.96